sensor_id;sensor_type;location;lat;lon;timestamp;pressure;altitude;pressure_sealevel;temperature;humidity
61963;BME280;47927;42.646;23.096;2023-05-01T00:01:05;92106.84;;;9.64;61.07
61963;BME280;47927;42.646;23.096;2023-05-01T00:03:31;92121.00;;;9.66;60.91
61963;BME280;47927;42.646;23.096;2023-05-01T00:06:02;92105.13;;;9.75;60.90
61963;BME280;47927;42.646;23.096;2023-05-01T00:08:29;92015.22;;;9.10;60.87
61963;BME280;47927;42.646;23.096;2023-05-01T00:10:54;92066.81;;;9.38;61.42
61963;BME280;47927;42.646;23.096;2023-05-01T00:13:20;92063.47;;;9.38;60.88
61963;BME280;47927;42.646;23.096;2023-05-01T00:15:49;92067.78;;;9.60;60.05
61963;BME280;47927;42.646;23.096;2023-05-01T00:18:15;92109.53;;;9.71;60.67
61963;BME280;47927;42.646;23.096;2023-05-01T00:20:41;92067.59;;;9.42;61.14
61963;BME280;47927;42.646;23.096;2023-05-01T00:23:06;92125.75;;;9.91;59.89
61963;BME280;47927;42.646;23.096;2023-05-01T00:25:33;92119.47;;;9.95;59.40
61963;BME280;47927;42.646;23.096;2023-05-01T00:27:58;92068.13;;;9.25;60.41
61963;BME280;47927;42.646;23.096;2023-05-01T00:30:24;92127.28;;;9.62;61.74
61963;BME280;47927;42.646;23.096;2023-05-01T00:33:10;92089.69;;;9.55;60.47
61963;BME280;47927;42.646;23.096;2023-05-01T00:35:37;92124.91;;;9.83;60.82
61963;BME280;47927;42.646;23.096;2023-05-01T00:38:02;92075.75;;;9.41;60.32
61963;BME280;47927;42.646;23.096;2023-05-01T00:40:28;92129.19;;;9.65;60.47
61963;BME280;47927;42.646;23.096;2023-05-01T00:42:53;92133.09;;;9.81;59.66
61963;BME280;47927;42.646;23.096;2023-05-01T00:48:56;92116.09;;;9.31;60.68
61963;BME280;47927;42.646;23.096;2023-05-01T00:51:22;92060.72;;;8.97;60.05
61963;BME280;47927;42.646;23.096;2023-05-01T00:53:47;92147.97;;;9.54;59.60
61963;BME280;47927;42.646;23.096;2023-05-01T00:56:14;92143.97;;;9.30;59.51
61963;BME280;47927;42.646;23.096;2023-05-01T00:58:40;92146.91;;;9.02;60.86
61963;BME280;47927;42.646;23.096;2023-05-01T01:01:06;92056.88;;;8.37;61.27
61963;BME280;47927;42.646;23.096;2023-05-01T01:07:06;92156.78;;;9.16;59.79
61963;BME280;47927;42.646;23.096;2023-05-01T01:10:01;92153.53;;;9.23;60.08
61963;BME280;47927;42.646;23.096;2023-05-01T01:12:51;92152.44;;;9.01;59.89
61963;BME280;47927;42.646;23.096;2023-05-01T01:15:34;92101.25;;;8.52;60.00
61963;BME280;47927;42.646;23.096;2023-05-01T01:18:08;92155.97;;;8.89;60.12
61963;BME280;47927;42.646;23.096;2023-05-01T01:20:43;92155.28;;;8.92;60.53
61963;BME280;47927;42.646;23.096;2023-05-01T01:28:29;92105.88;;;8.39;61.50
61963;BME280;47927;42.646;23.096;2023-05-01T01:41:58;92109.28;;;8.23;61.20
61963;BME280;47927;42.646;23.096;2023-05-01T01:44:40;92162.81;;;8.51;61.50
61963;BME280;47927;42.646;23.096;2023-05-01T01:47:10;92150.69;;;7.97;63.53
61963;BME280;47927;42.646;23.096;2023-05-01T01:49:39;92155.88;;;7.97;64.40
61963;BME280;47927;42.646;23.096;2023-05-01T01:52:07;92145.94;;;7.99;64.26
61963;BME280;47927;42.646;23.096;2023-05-01T01:54:37;92157.28;;;8.33;63.69
61963;BME280;47927;42.646;23.096;2023-05-01T01:57:24;92075.19;;;8.02;62.58
61963;BME280;47927;42.646;23.096;2023-05-01T01:59:52;92152.94;;;8.60;62.08
61963;BME280;47927;42.646;23.096;2023-05-01T02:02:20;92151.75;;;8.54;62.32
61963;BME280;47927;42.646;23.096;2023-05-01T02:04:47;92145.38;;;8.09;64.04
61963;BME280;47927;42.646;23.096;2023-05-01T02:07:14;92129.56;;;7.75;64.85
61963;BME280;47927;42.646;23.096;2023-05-01T02:09:43;92151.63;;;7.85;65.28
61963;BME280;47927;42.646;23.096;2023-05-01T02:12:11;92068.41;;;7.55;64.67
61963;BME280;47927;42.646;23.096;2023-05-01T02:14:38;92113.63;;;7.96;64.73
61963;BME280;47927;42.646;23.096;2023-05-01T02:17:05;92086.56;;;7.74;64.73
61963;BME280;47927;42.646;23.096;2023-05-01T02:19:32;92058.66;;;7.48;64.67
61963;BME280;47927;42.646;23.096;2023-05-01T02:21:59;92084.63;;;7.91;63.93
61963;BME280;47927;42.646;23.096;2023-05-01T02:24:27;92102.25;;;7.82;63.97
61963;BME280;47927;42.646;23.096;2023-05-01T02:26:57;92144.69;;;7.93;64.42
61963;BME280;47927;42.646;23.096;2023-05-01T02:29:25;92127.72;;;7.95;64.57
61963;BME280;47927;42.646;23.096;2023-05-01T02:31:52;92147.13;;;8.25;63.89
61963;BME280;47927;42.646;23.096;2023-05-01T02:34:37;92142.47;;;8.34;62.04
61963;BME280;47927;42.646;23.096;2023-05-01T02:37:05;92145.00;;;8.30;62.95
61963;BME280;47927;42.646;23.096;2023-05-01T02:39:33;92147.84;;;8.44;61.93
61963;BME280;47927;42.646;23.096;2023-05-01T02:42:00;92125.03;;;8.34;61.17
61963;BME280;47927;42.646;23.096;2023-05-01T02:44:38;92151.41;;;8.36;60.55
61963;BME280;47927;42.646;23.096;2023-05-01T02:47:06;92081.97;;;7.87;61.70
61963;BME280;47927;42.646;23.096;2023-05-01T02:49:33;92077.41;;;7.81;61.23
61963;BME280;47927;42.646;23.096;2023-05-01T02:51:59;92046.19;;;7.54;62.51
61963;BME280;47927;42.646;23.096;2023-05-01T02:54:25;92075.16;;;7.40;64.45
61963;BME280;47927;42.646;23.096;2023-05-01T02:56:51;92104.00;;;7.97;64.32
61963;BME280;47927;42.646;23.096;2023-05-01T02:59:18;92153.03;;;8.44;63.63
61963;BME280;47927;42.646;23.096;2023-05-01T03:01:43;92155.94;;;8.39;60.55
61963;BME280;47927;42.646;23.096;2023-05-01T03:04:08;92068.91;;;7.61;61.31
61963;BME280;47927;42.646;23.096;2023-05-01T03:06:34;92147.13;;;8.25;62.47
61963;BME280;47927;42.646;23.096;2023-05-01T03:08:59;92074.28;;;7.71;60.71
61963;BME280;47927;42.646;23.096;2023-05-01T03:11:25;92108.19;;;7.82;61.09
61963;BME280;47927;42.646;23.096;2023-05-01T03:13:51;92137.13;;;8.04;63.79
61963;BME280;47927;42.646;23.096;2023-05-01T03:16:16;92147.06;;;8.21;65.04
61963;BME280;47927;42.646;23.096;2023-05-01T03:18:42;92149.31;;;8.22;64.18
61963;BME280;47927;42.646;23.096;2023-05-01T03:21:08;92152.44;;;8.32;61.67
61963;BME280;47927;42.646;23.096;2023-05-01T03:23:33;92069.59;;;7.38;61.91
61963;BME280;47927;42.646;23.096;2023-05-01T03:25:59;92117.53;;;7.48;63.83
61963;BME280;47927;42.646;23.096;2023-05-01T03:28:25;92148.19;;;8.01;62.97
61963;BME280;47927;42.646;23.096;2023-05-01T03:30:52;92115.84;;;7.75;63.18
61963;BME280;47927;42.646;23.096;2023-05-01T03:33:18;92135.28;;;8.04;61.25
61963;BME280;47927;42.646;23.096;2023-05-01T03:35:43;92117.47;;;7.64;59.47
61963;BME280;47927;42.646;23.096;2023-05-01T03:38:09;92153.44;;;7.65;63.16
61963;BME280;47927;42.646;23.096;2023-05-01T03:41:10;92172.06;;;7.90;61.56
61963;BME280;47927;42.646;23.096;2023-05-01T03:44:05;92165.47;;;7.73;64.33
61963;BME280;47927;42.646;23.096;2023-05-01T03:46:35;92170.63;;;7.93;62.38
61963;BME280;47927;42.646;23.096;2023-05-01T03:49:01;92138.28;;;8.06;62.83
61963;BME280;47927;42.646;23.096;2023-05-01T03:51:31;92169.06;;;9.19;62.20
61963;BME280;47927;42.646;23.096;2023-05-01T03:53:56;92164.59;;;10.40;59.36
61963;BME280;47927;42.646;23.096;2023-05-01T03:56:25;92174.59;;;11.90;56.31
61963;BME280;47927;42.646;23.096;2023-05-01T03:58:51;92115.84;;;12.78;52.79
61963;BME280;47927;42.646;23.096;2023-05-01T04:01:18;92168.31;;;14.23;50.17
61963;BME280;47927;42.646;23.096;2023-05-01T04:03:45;92174.81;;;15.26;45.92
61963;BME280;47927;42.646;23.096;2023-05-01T04:06:14;92126.94;;;15.91;44.24
61963;BME280;47927;42.646;23.096;2023-05-01T04:08:41;92181.03;;;16.80;42.66
61963;BME280;47927;42.646;23.096;2023-05-01T04:11:07;92167.59;;;17.25;41.69
61963;BME280;47927;42.646;23.096;2023-05-01T04:13:32;92176.06;;;17.60;42.04
61963;BME280;47927;42.646;23.096;2023-05-01T04:15:58;92183.03;;;17.70;42.26
61963;BME280;47927;42.646;23.096;2023-05-01T04:18:25;92176.91;;;17.77;41.67
61963;BME280;47927;42.646;23.096;2023-05-01T04:20:56;92185.59;;;18.37;39.68
61963;BME280;47927;42.646;23.096;2023-05-01T04:23:22;92191.41;;;18.49;39.69
61963;BME280;47927;42.646;23.096;2023-05-01T04:25:48;92192.44;;;19.07;38.73
61963;BME280;47927;42.646;23.096;2023-05-01T04:28:22;92127.09;;;18.22;37.77
61963;BME280;47927;42.646;23.096;2023-05-01T04:30:48;92146.78;;;17.54;40.50
61963;BME280;47927;42.646;23.096;2023-05-01T04:33:14;92135.13;;;17.56;40.94
61963;BME280;47927;42.646;23.096;2023-05-01T04:35:40;92204.22;;;17.87;40.11
61963;BME280;47927;42.646;23.096;2023-05-01T04:38:07;92185.25;;;17.52;41.66
61963;BME280;47927;42.646;23.096;2023-05-01T04:40:34;92196.16;;;17.50;44.05
61963;BME280;47927;42.646;23.096;2023-05-01T04:43:00;92197.59;;;17.55;43.08
61963;BME280;47927;42.646;23.096;2023-05-01T04:45:26;92189.31;;;18.00;42.21
61963;BME280;47927;42.646;23.096;2023-05-01T04:47:52;92182.66;;;18.72;40.24
61963;BME280;47927;42.646;23.096;2023-05-01T04:50:18;92207.22;;;19.54;39.62
61963;BME280;47927;42.646;23.096;2023-05-01T04:52:44;92179.16;;;20.47;37.18
61963;BME280;47927;42.646;23.096;2023-05-01T04:55:10;92205.91;;;21.17;35.19
61963;BME280;47927;42.646;23.096;2023-05-01T04:57:44;92203.03;;;21.63;34.47
61963;BME280;47927;42.646;23.096;2023-05-01T05:00:10;92206.66;;;21.91;34.36
61963;BME280;47927;42.646;23.096;2023-05-01T05:02:45;92176.03;;;22.34;33.37
61963;BME280;47927;42.646;23.096;2023-05-01T05:05:13;92215.66;;;23.93;30.92
61963;BME280;47927;42.646;23.096;2023-05-01T05:07:38;92211.25;;;25.06;29.85
61963;BME280;47927;42.646;23.096;2023-05-01T05:10:23;92219.28;;;27.19;26.42
61963;BME280;47927;42.646;23.096;2023-05-01T05:13:00;92226.03;;;28.46;24.94
61963;BME280;47927;42.646;23.096;2023-05-01T05:15:26;92217.88;;;29.45;23.44
61963;BME280;47927;42.646;23.096;2023-05-01T05:17:51;92229.44;;;30.76;21.86
61963;BME280;47927;42.646;23.096;2023-05-01T05:20:17;92233.06;;;32.03;20.34
61963;BME280;47927;42.646;23.096;2023-05-01T05:22:43;92236.69;;;32.75;19.45
61963;BME280;47927;42.646;23.096;2023-05-01T05:25:37;92239.88;;;32.79;17.67
61963;BME280;47927;42.646;23.096;2023-05-01T05:28:03;92179.84;;;31.05;19.52
61963;BME280;47927;42.646;23.096;2023-05-01T05:30:29;92228.22;;;31.84;19.63
61963;BME280;47927;42.646;23.096;2023-05-01T05:32:55;92249.03;;;31.78;19.46
61963;BME280;47927;42.646;23.096;2023-05-01T05:35:22;92194.50;;;31.38;19.30
61963;BME280;47927;42.646;23.096;2023-05-01T05:37:48;92251.34;;;33.26;18.96
61963;BME280;47927;42.646;23.096;2023-05-01T05:40:14;92251.56;;;34.57;17.57
61963;BME280;47927;42.646;23.096;2023-05-01T05:42:50;92233.47;;;33.78;17.28
61963;BME280;47927;42.646;23.096;2023-05-01T05:45:16;92269.13;;;34.44;17.14
61963;BME280;47927;42.646;23.096;2023-05-01T05:47:42;92259.06;;;35.53;15.92
61963;BME280;47927;42.646;23.096;2023-05-01T05:50:09;92265.63;;;36.56;15.29
61963;BME280;47927;42.646;23.096;2023-05-01T05:52:35;92270.88;;;35.69;15.55
61963;BME280;47927;42.646;23.096;2023-05-01T05:55:01;92246.94;;;36.26;15.27
61963;BME280;47927;42.646;23.096;2023-05-01T05:57:28;92279.16;;;36.43;15.32
61963;BME280;47927;42.646;23.096;2023-05-01T05:59:54;92272.41;;;37.10;14.79
61963;BME280;47927;42.646;23.096;2023-05-01T06:02:22;92277.41;;;37.06;15.03
61963;BME280;47927;42.646;23.096;2023-05-01T06:04:48;92263.41;;;37.15;14.42
61963;BME280;47927;42.646;23.096;2023-05-01T06:07:15;92278.66;;;37.81;14.08
61963;BME280;47927;42.646;23.096;2023-05-01T06:09:41;92281.50;;;37.97;14.19
61963;BME280;47927;42.646;23.096;2023-05-01T06:12:07;92253.34;;;38.95;13.68
61963;BME280;47927;42.646;23.096;2023-05-01T06:14:33;92258.03;;;38.87;13.13
61963;BME280;47927;42.646;23.096;2023-05-01T06:16:59;92278.75;;;36.65;14.94
61963;BME280;47927;42.646;23.096;2023-05-01T06:19:25;92241.78;;;37.73;14.09
61963;BME280;47927;42.646;23.096;2023-05-01T06:21:57;92273.94;;;38.03;14.33
61963;BME280;47927;42.646;23.096;2023-05-01T06:24:23;92280.34;;;38.42;13.93
61963;BME280;47927;42.646;23.096;2023-05-01T06:26:51;92234.66;;;38.48;13.80
61963;BME280;47927;42.646;23.096;2023-05-01T06:29:16;92283.25;;;38.44;13.53
61963;BME280;47927;42.646;23.096;2023-05-01T06:31:42;92278.59;;;39.11;13.59
61963;BME280;47927;42.646;23.096;2023-05-01T06:34:08;92249.47;;;38.39;13.94
61963;BME280;47927;42.646;23.096;2023-05-01T06:36:45;92260.16;;;38.81;13.84
61963;BME280;47927;42.646;23.096;2023-05-01T06:39:11;92281.81;;;39.54;12.79
61963;BME280;47927;42.646;23.096;2023-05-01T06:41:37;92279.81;;;40.08;13.20
61963;BME280;47927;42.646;23.096;2023-05-01T06:44:03;92282.72;;;40.10;13.17
61963;BME280;47927;42.646;23.096;2023-05-01T06:46:29;92257.81;;;39.60;12.67
61963;BME280;47927;42.646;23.096;2023-05-01T06:48:55;92279.22;;;40.32;12.62
61963;BME280;47927;42.646;23.096;2023-05-01T06:51:21;92283.06;;;40.14;12.88
61963;BME280;47927;42.646;23.096;2023-05-01T06:53:46;92262.91;;;40.02;13.18
61963;BME280;47927;42.646;23.096;2023-05-01T06:56:12;92213.13;;;40.42;11.78
61963;BME280;47927;42.646;23.096;2023-05-01T06:58:37;92228.00;;;39.39;12.68
61963;BME280;47927;42.646;23.096;2023-05-01T07:01:03;92285.44;;;40.25;12.94
61963;BME280;47927;42.646;23.096;2023-05-01T07:03:30;92247.28;;;39.87;12.75
61963;BME280;47927;42.646;23.096;2023-05-01T07:05:55;92272.69;;;40.84;11.64
61963;BME280;47927;42.646;23.096;2023-05-01T07:08:21;92242.19;;;40.54;11.81
61963;BME280;47927;42.646;23.096;2023-05-01T07:10:46;92287.97;;;39.62;12.34
61963;BME280;47927;42.646;23.096;2023-05-01T07:13:15;92280.41;;;39.01;12.85
61963;BME280;47927;42.646;23.096;2023-05-01T07:15:40;92256.34;;;39.59;12.51
61963;BME280;47927;42.646;23.096;2023-05-01T07:18:06;92257.91;;;39.01;12.84
61963;BME280;47927;42.646;23.096;2023-05-01T07:20:32;92292.00;;;39.84;12.62
61963;BME280;47927;42.646;23.096;2023-05-01T07:22:58;92273.22;;;40.34;12.41
61963;BME280;47927;42.646;23.096;2023-05-01T07:25:23;92291.59;;;37.68;14.02
61963;BME280;47927;42.646;23.096;2023-05-01T07:27:49;92302.09;;;34.43;16.74
61963;BME280;47927;42.646;23.096;2023-05-01T07:30:15;92306.72;;;33.03;18.59
61963;BME280;47927;42.646;23.096;2023-05-01T07:32:40;92302.44;;;31.40;19.84
61963;BME280;47927;42.646;23.096;2023-05-01T07:35:06;92301.09;;;30.19;21.82
61963;BME280;47927;42.646;23.096;2023-05-01T07:37:32;92278.09;;;29.06;23.29
61963;BME280;47927;42.646;23.096;2023-05-01T07:39:58;92312.00;;;28.07;24.39
61963;BME280;47927;42.646;23.096;2023-05-01T07:42:25;92282.13;;;26.99;25.47
61963;BME280;47927;42.646;23.096;2023-05-01T07:44:51;92298.56;;;26.29;27.15
61963;BME280;47927;42.646;23.096;2023-05-01T07:47:16;92278.50;;;25.53;28.36
61963;BME280;47927;42.646;23.096;2023-05-01T07:49:42;92273.59;;;25.18;28.21
61963;BME280;47927;42.646;23.096;2023-05-01T07:52:08;92201.63;;;24.48;28.83
61963;BME280;47927;42.646;23.096;2023-05-01T07:54:34;92256.53;;;24.45;29.02
61963;BME280;47927;42.646;23.096;2023-05-01T07:57:00;92294.69;;;24.51;29.64
61963;BME280;47927;42.646;23.096;2023-05-01T07:59:27;92252.19;;;23.93;30.77
61963;BME280;47927;42.646;23.096;2023-05-01T08:01:53;92294.69;;;24.42;30.38
61963;BME280;47927;42.646;23.096;2023-05-01T08:04:19;92213.63;;;27.32;26.25
61963;BME280;47927;42.646;23.096;2023-05-01T08:06:50;92249.00;;;30.77;22.22
61963;BME280;47927;42.646;23.096;2023-05-01T08:09:16;92298.72;;;31.32;21.28
61963;BME280;47927;42.646;23.096;2023-05-01T08:11:41;92259.28;;;29.70;22.79
61963;BME280;47927;42.646;23.096;2023-05-01T08:14:07;92293.06;;;30.85;21.84
61963;BME280;47927;42.646;23.096;2023-05-01T08:16:51;92258.84;;;31.75;20.25
61963;BME280;47927;42.646;23.096;2023-05-01T08:19:20;92281.66;;;33.74;18.28
61963;BME280;47927;42.646;23.096;2023-05-01T08:21:46;92245.72;;;32.83;17.97
61963;BME280;47927;42.646;23.096;2023-05-01T08:24:11;92287.75;;;31.69;19.33
61963;BME280;47927;42.646;23.096;2023-05-01T08:26:37;92300.38;;;32.31;18.53
61963;BME280;47927;42.646;23.096;2023-05-01T08:29:02;92263.34;;;30.51;19.41
61963;BME280;47927;42.646;23.096;2023-05-01T08:31:28;92259.34;;;29.12;21.52
61963;BME280;47927;42.646;23.096;2023-05-01T08:33:53;92300.69;;;28.53;21.16
61963;BME280;47927;42.646;23.096;2023-05-01T08:36:19;92298.97;;;29.92;21.32
61963;BME280;47927;42.646;23.096;2023-05-01T08:38:45;92297.88;;;27.57;22.45
61963;BME280;47927;42.646;23.096;2023-05-01T08:41:15;92301.13;;;25.24;24.04
61963;BME280;47927;42.646;23.096;2023-05-01T08:43:42;92302.59;;;24.15;25.44
61963;BME280;47927;42.646;23.096;2023-05-01T08:46:08;92294.31;;;25.99;23.74
61963;BME280;47927;42.646;23.096;2023-05-01T08:48:34;92299.94;;;24.15;26.20
61963;BME280;47927;42.646;23.096;2023-05-01T08:51:01;92300.78;;;23.53;26.31
61963;BME280;47927;42.646;23.096;2023-05-01T08:53:30;92260.41;;;23.36;26.59
61963;BME280;47927;42.646;23.096;2023-05-01T08:55:57;92240.66;;;22.40;27.26
61963;BME280;47927;42.646;23.096;2023-05-01T08:58:25;92283.84;;;22.18;28.23
61963;BME280;47927;42.646;23.096;2023-05-01T09:00:52;92258.56;;;22.26;28.42
61963;BME280;47927;42.646;23.096;2023-05-01T09:03:18;92297.47;;;23.30;27.28
61963;BME280;47927;42.646;23.096;2023-05-01T09:05:44;92291.66;;;24.95;25.18
61963;BME280;47927;42.646;23.096;2023-05-01T09:08:11;92207.97;;;23.95;25.36
61963;BME280;47927;42.646;23.096;2023-05-01T09:10:44;92301.16;;;24.41;26.08
61963;BME280;47927;42.646;23.096;2023-05-01T09:13:10;92297.84;;;23.91;26.91
61963;BME280;47927;42.646;23.096;2023-05-01T09:15:36;92296.53;;;23.96;26.53
61963;BME280;47927;42.646;23.096;2023-05-01T09:18:02;92234.03;;;23.10;26.58
61963;BME280;47927;42.646;23.096;2023-05-01T09:20:28;92294.19;;;23.66;27.01
61963;BME280;47927;42.646;23.096;2023-05-01T09:22:55;92299.72;;;23.10;27.62
61963;BME280;47927;42.646;23.096;2023-05-01T09:25:23;92202.69;;;22.08;28.51
61963;BME280;47927;42.646;23.096;2023-05-01T09:28:04;92275.97;;;22.27;28.33
61963;BME280;47927;42.646;23.096;2023-05-01T09:30:35;92290.28;;;21.82;29.81
61963;BME280;47927;42.646;23.096;2023-05-01T09:33:07;92288.03;;;22.85;28.65
61963;BME280;47927;42.646;23.096;2023-05-01T09:35:50;92219.28;;;22.87;26.36
61963;BME280;47927;42.646;23.096;2023-05-01T09:38:17;92235.38;;;22.62;26.74
61963;BME280;47927;42.646;23.096;2023-05-01T09:40:43;92281.38;;;22.59;28.41
61963;BME280;47927;42.646;23.096;2023-05-01T09:43:09;92200.25;;;22.01;28.45
61963;BME280;47927;42.646;23.096;2023-05-01T09:45:35;92227.16;;;22.47;27.68
61963;BME280;47927;42.646;23.096;2023-05-01T09:48:09;92279.19;;;22.10;28.26
61963;BME280;47927;42.646;23.096;2023-05-01T09:50:35;92278.00;;;22.23;28.65
61963;BME280;47927;42.646;23.096;2023-05-01T09:53:02;92250.56;;;22.61;27.16
61963;BME280;47927;42.646;23.096;2023-05-01T09:55:29;92249.50;;;23.03;27.15
61963;BME280;47927;42.646;23.096;2023-05-01T09:57:55;92195.47;;;21.74;28.10
61963;BME280;47927;42.646;23.096;2023-05-01T10:00:23;92239.16;;;23.36;27.26
61963;BME280;47927;42.646;23.096;2023-05-01T10:02:49;92266.84;;;24.62;25.50
61963;BME280;47927;42.646;23.096;2023-05-01T10:05:16;92236.06;;;24.33;24.63
61963;BME280;47927;42.646;23.096;2023-05-01T10:07:55;92262.25;;;24.34;25.38
61963;BME280;47927;42.646;23.096;2023-05-01T10:10:24;92206.94;;;24.20;25.06
61963;BME280;47927;42.646;23.096;2023-05-01T10:12:50;92262.56;;;24.64;25.34
61963;BME280;47927;42.646;23.096;2023-05-01T10:15:16;92272.63;;;24.51;25.46
61963;BME280;47927;42.646;23.096;2023-05-01T10:17:43;92262.66;;;23.87;25.96
61963;BME280;47927;42.646;23.096;2023-05-01T10:20:10;92239.34;;;24.19;26.64
61963;BME280;47927;42.646;23.096;2023-05-01T10:22:37;92201.94;;;24.13;26.22
61963;BME280;47927;42.646;23.096;2023-05-01T10:25:09;92250.56;;;24.32;25.26
61963;BME280;47927;42.646;23.096;2023-05-01T10:27:40;92188.47;;;24.17;25.06
61963;BME280;47927;42.646;23.096;2023-05-01T10:30:07;92241.53;;;22.81;26.14
61963;BME280;47927;42.646;23.096;2023-05-01T10:32:34;92227.84;;;23.63;26.34
61963;BME280;47927;42.646;23.096;2023-05-01T10:35:08;92276.63;;;24.46;26.01
61963;BME280;47927;42.646;23.096;2023-05-01T10:37:50;92260.09;;;25.55;24.65
61963;BME280;47927;42.646;23.096;2023-05-01T10:40:49;92264.34;;;25.37;24.66
61963;BME280;47927;42.646;23.096;2023-05-01T10:43:25;92259.28;;;24.78;26.43
61963;BME280;47927;42.646;23.096;2023-05-01T10:51:15;92261.94;;;24.14;26.27
61963;BME280;47927;42.646;23.096;2023-05-01T10:53:46;92186.00;;;23.36;26.80
61963;BME280;47927;42.646;23.096;2023-05-01T10:59:00;92211.75;;;23.57;28.08
61963;BME280;47927;42.646;23.096;2023-05-01T11:01:42;92254.13;;;24.75;26.54
61963;BME280;47927;42.646;23.096;2023-05-01T11:09:49;92202.97;;;25.46;26.43
61963;BME280;47927;42.646;23.096;2023-05-01T11:15:10;92260.88;;;23.03;27.79
61963;BME280;47927;42.646;23.096;2023-05-01T11:20:09;92245.78;;;23.31;28.61
61963;BME280;47927;42.646;23.096;2023-05-01T11:22:36;92216.00;;;23.05;28.62
61963;BME280;47927;42.646;23.096;2023-05-01T11:25:03;92174.06;;;23.00;28.69
61963;BME280;47927;42.646;23.096;2023-05-01T11:27:29;92206.00;;;23.18;27.34
61963;BME280;47927;42.646;23.096;2023-05-01T11:29:57;92252.59;;;23.01;28.84
61963;BME280;47927;42.646;23.096;2023-05-01T11:32:27;92265.88;;;23.01;28.86
61963;BME280;47927;42.646;23.096;2023-05-01T11:34:54;92176.16;;;22.08;29.62
61963;BME280;47927;42.646;23.096;2023-05-01T11:37:38;92245.91;;;22.30;28.65
61963;BME280;47927;42.646;23.096;2023-05-01T11:40:17;92242.69;;;22.14;29.46
61963;BME280;47927;42.646;23.096;2023-05-01T11:42:44;92200.44;;;22.19;29.53
61963;BME280;47927;42.646;23.096;2023-05-01T11:45:10;92192.25;;;22.80;27.70
61963;BME280;47927;42.646;23.096;2023-05-01T11:47:36;92246.56;;;23.10;28.27
61963;BME280;47927;42.646;23.096;2023-05-01T11:50:02;92217.66;;;22.59;28.53
61963;BME280;47927;42.646;23.096;2023-05-01T11:52:28;92195.84;;;21.25;29.17
61963;BME280;47927;42.646;23.096;2023-05-01T11:54:54;92229.75;;;22.03;29.29
61963;BME280;47927;42.646;23.096;2023-05-01T11:57:20;92246.03;;;21.79;29.14
61963;BME280;47927;42.646;23.096;2023-05-01T11:59:46;92206.78;;;21.39;30.39
61963;BME280;47927;42.646;23.096;2023-05-01T12:02:19;92244.31;;;21.51;30.26
61963;BME280;47927;42.646;23.096;2023-05-01T12:04:44;92238.91;;;22.02;29.56
61963;BME280;47927;42.646;23.096;2023-05-01T12:07:22;92188.88;;;22.57;28.72
61963;BME280;47927;42.646;23.096;2023-05-01T12:09:49;92209.16;;;22.95;28.93
61963;BME280;47927;42.646;23.096;2023-05-01T12:12:15;92237.44;;;22.58;29.19
61963;BME280;47927;42.646;23.096;2023-05-01T12:14:42;92239.94;;;22.39;28.74
61963;BME280;47927;42.646;23.096;2023-05-01T12:17:08;92226.13;;;21.75;29.74
61963;BME280;47927;42.646;23.096;2023-05-01T12:19:46;92218.63;;;20.97;30.45
61963;BME280;47927;42.646;23.096;2023-05-01T12:22:13;92240.88;;;20.99;30.59
61963;BME280;47927;42.646;23.096;2023-05-01T12:24:50;92234.63;;;21.31;30.20
61963;BME280;47927;42.646;23.096;2023-05-01T12:27:19;92221.69;;;21.59;30.31
61963;BME280;47927;42.646;23.096;2023-05-01T12:29:45;92227.00;;;20.82;30.38
61963;BME280;47927;42.646;23.096;2023-05-01T12:32:15;92193.25;;;18.88;33.45
61963;BME280;47927;42.646;23.096;2023-05-01T12:34:41;92199.06;;;19.81;33.23
61963;BME280;47927;42.646;23.096;2023-05-01T12:37:08;92213.09;;;20.36;31.98
61963;BME280;47927;42.646;23.096;2023-05-01T12:39:37;92238.91;;;19.54;34.49
61963;BME280;47927;42.646;23.096;2023-05-01T12:42:10;92245.13;;;18.95;35.98
61963;BME280;47927;42.646;23.096;2023-05-01T12:44:36;92195.22;;;19.00;35.80
61963;BME280;47927;42.646;23.096;2023-05-01T12:47:07;92236.47;;;18.94;35.56
61963;BME280;47927;42.646;23.096;2023-05-01T12:49:34;92257.34;;;18.49;37.03
61963;BME280;47927;42.646;23.096;2023-05-01T12:52:04;92255.44;;;18.49;36.31
61963;BME280;47927;42.646;23.096;2023-05-01T12:54:36;92268.97;;;18.51;34.96
61963;BME280;47927;42.646;23.096;2023-05-01T12:57:15;92258.88;;;18.06;35.46
61963;BME280;47927;42.646;23.096;2023-05-01T12:59:43;92180.06;;;17.68;35.05
61963;BME280;47927;42.646;23.096;2023-05-01T13:02:13;92239.34;;;18.83;35.02
61963;BME280;47927;42.646;23.096;2023-05-01T13:04:42;92242.53;;;18.35;35.96
61963;BME280;47927;42.646;23.096;2023-05-01T13:07:12;92191.06;;;17.87;35.71
61963;BME280;47927;42.646;23.096;2023-05-01T13:09:50;92212.19;;;17.36;36.61
61963;BME280;47927;42.646;23.096;2023-05-01T13:12:16;92188.38;;;17.67;37.07
61963;BME280;47927;42.646;23.096;2023-05-01T13:14:42;92181.31;;;17.60;34.46
61963;BME280;47927;42.646;23.096;2023-05-01T13:17:08;92204.75;;;17.78;35.82
61963;BME280;47927;42.646;23.096;2023-05-01T13:19:38;92207.22;;;17.65;35.72
61963;BME280;47927;42.646;23.096;2023-05-01T13:22:04;92186.31;;;17.07;36.46
61963;BME280;47927;42.646;23.096;2023-05-01T13:24:41;92204.53;;;16.64;37.18
61963;BME280;47927;42.646;23.096;2023-05-01T13:27:12;92177.09;;;17.19;38.14
61963;BME280;47927;42.646;23.096;2023-05-01T13:29:38;92175.16;;;17.47;35.33
61963;BME280;47927;42.646;23.096;2023-05-01T13:32:09;92243.69;;;17.43;36.66
61963;BME280;47927;42.646;23.096;2023-05-01T13:34:34;92252.38;;;17.64;36.59
61963;BME280;47927;42.646;23.096;2023-05-01T13:37:01;92210.75;;;16.81;38.76
61963;BME280;47927;42.646;23.096;2023-05-01T13:39:27;92272.91;;;17.25;38.55
61963;BME280;47927;42.646;23.096;2023-05-01T13:41:53;92265.09;;;17.45;37.63